Time;durP1;ratioP1;P1;durP2;ratioP2;P2;SDS_P1;SDS_P2;PMS_P1;PMS_P2;Temp;Humidity;BMP_temperature;BMP_pressure;BME280_temperature;BME280_humidity;BME280_pressure;Samples;Min_cycle;Max_cycle;Signal;HPM_P1;HPM_P2
2023/09/03 00:01:30;;;;;;;8.70;5.40;;;;;;;;;;6300777;28;20058;-78
2023/09/03 00:04:32;;;;;;;;;;;;;;;;;;6295062;28;20067;-79
2023/09/03 00:07:34;;;;;;;9.07;5.28;;;;;;;;;;6294632;28;19923;-78
2023/09/03 00:10:37;;;;;;;9.23;5.60;;;;;;;;;;6295066;28;20058;-78
2023/09/03 00:13:45;;;;;;;10.30;5.55;;;;;;;;;;6290078;28;20064;-78
2023/09/03 00:16:48;;;;;;;9.85;5.60;;;;;;;;;;6289380;28;20052;-76
2023/09/03 00:19:49;;;;;;;;;;;;;;;;;;6296241;28;20052;-77
2023/09/03 00:22:51;;;;;;;7.47;5.60;;;;;;;;;;6296068;28;19923;-78
2023/09/03 00:25:53;;;;;;;8.05;5.75;;;;;;;;;;6300359;28;20057;-78
2023/09/03 00:28:55;;;;;;;11.52;5.50;;;;;;;;;;6295180;28;20125;-79
2023/09/03 00:31:58;;;;;;;9.18;6.03;;;;;;;;;;6300678;28;20060;-78
2023/09/03 00:35:00;;;;;;;13.15;7.20;;;;;;;;;;6296916;28;20049;-78
2023/09/03 00:38:04;;;;;;;13.50;6.43;;;;;;;;;;6293383;28;20095;-79
2023/09/03 00:41:06;;;;;;;11.73;6.60;;;;;;;;;;6296623;28;20052;-78
2023/09/03 00:44:08;;;;;;;8.80;6.03;;;;;;;;;;6297909;28;20340;-78
2023/09/03 00:47:11;;;;;;;10.40;5.95;;;;;;;;;;6299303;28;20044;-78
2023/09/03 00:50:13;;;;;;;8.77;5.80;;;;;;;;;;6303286;28;20049;-78
2023/09/03 00:53:17;;;;;;;7.78;5.82;;;;;;;;;;6287619;28;20052;-79
2023/09/03 00:56:18;;;;;;;;;;;;;;;;;;6303894;28;20052;-77
2023/09/03 00:59:20;;;;;;;10.00;5.95;;;;;;;;;;6299352;28;20090;-78
2023/09/03 01:02:24;;;;;;;9.43;6.40;;;;;;;;;;6301570;28;20061;-78
2023/09/03 01:05:25;;;;;;;;;;;;;;;;;;6302472;28;20056;-77
2023/09/03 01:08:28;;;;;;;9.68;6.65;;;;;;;;;;6302949;28;19928;-78
2023/09/03 01:11:43;;;;;;;10.65;6.25;;;;;;;;;;6299700;28;20072;-78
2023/09/03 01:14:51;;;;;;;9.05;6.70;;;;;;;;;;6285449;28;20128;-78
2023/09/03 01:18:03;;;;;;;13.27;6.78;;;;;;;;;;6298183;28;20051;-79
2023/09/03 01:21:20;;;;;;;10.75;6.45;;;;;;;;;;6303451;28;20120;-79
2023/09/03 01:24:44;;;;;;;9.80;7.40;;;;;;;;;;6305929;28;20435;-79
2023/09/03 01:27:52;;;;;;;9.05;6.53;;;;;;;;;;6302171;28;20337;-77
2023/09/03 01:30:59;;;;;;;11.55;6.80;;;;;;;;;;6299943;28;20053;-78
2023/09/03 01:34:07;;;;;;;9.95;7.07;;;;;;;;;;6300069;28;20052;-77
2023/09/03 01:37:12;;;;;;;11.25;7.40;;;;;;;;;;6300382;28;20052;-80
2023/09/03 01:40:14;;;;;;;9.38;6.88;;;;;;;;;;6301879;28;20107;-80
2023/09/03 01:43:16;;;;;;;8.65;6.75;;;;;;;;;;6301887;28;20465;-80
2023/09/03 01:46:23;;;;;;;8.60;6.47;;;;;;;;;;6301838;28;20060;-79
2023/09/03 01:49:31;;;;;;;11.07;6.72;;;;;;;;;;6303284;28;20061;-78
2023/09/03 01:52:42;;;;;;;10.02;6.80;;;;;;;;;;6299262;28;20056;-78
2023/09/03 01:55:47;;;;;;;11.23;6.80;;;;;;;;;;6303483;28;20231;-78
2023/09/03 01:58:57;;;;;;;8.32;6.22;;;;;;;;;;6300257;28;20055;-81
2023/09/03 02:02:00;;;;;;;9.30;6.03;;;;;;;;;;6301233;28;20067;-79
2023/09/03 02:05:02;;;;;;;;;;;;;;;;;;6303413;28;20044;-81
2023/09/03 02:08:05;;;;;;;7.85;6.13;;;;;;;;;;6300852;28;19947;-79
2023/09/03 02:11:06;;;;;;;11.33;6.47;;;;;;;;;;6292487;28;20073;-78
2023/09/03 02:14:09;;;;;;;11.38;6.43;;;;;;;;;;6294647;28;20056;-78
2023/09/03 02:17:14;;;;;;;11.32;6.43;;;;;;;;;;6300821;28;20044;-77
2023/09/03 02:20:17;;;;;;;11.07;5.93;;;;;;;;;;6301344;28;20056;-77
2023/09/03 02:23:19;;;;;;;10.15;6.30;;;;;;;;;;6302821;28;20338;-77
2023/09/03 02:26:21;;;;;;;8.52;6.50;;;;;;;;;;6304777;28;20248;-77
2023/09/03 02:29:22;;;;;;;9.73;6.63;;;;;;;;;;6299670;28;20324;-77
2023/09/03 02:32:25;;;;;;;8.98;5.78;;;;;;;;;;6299788;28;20598;-76
2023/09/03 02:35:27;;;;;;;7.53;6.00;;;;;;;;;;6296545;28;20325;-76
2023/09/03 02:38:29;;;;;;;9.10;6.38;;;;;;;;;;6297522;28;20052;-76
2023/09/03 02:41:31;;;;;;;7.70;6.47;;;;;;;;;;6298052;28;20112;-77
2023/09/03 02:44:32;;;;;;;9.90;6.72;;;;;;;;;;6296465;28;20052;-76
2023/09/03 02:47:36;;;;;;;7.22;6.00;;;;;;;;;;6301534;28;20287;-76
2023/09/03 02:50:38;;;;;;;8.93;5.93;;;;;;;;;;6302712;28;20449;-76
2023/09/03 02:53:41;;;;;;;7.10;6.38;;;;;;;;;;6299430;28;20341;-76
2023/09/03 02:56:42;;;;;;;8.50;6.10;;;;;;;;;;6300422;28;20181;-76
2023/09/03 02:59:44;;;;;;;14.02;6.68;;;;;;;;;;6296402;28;20044;-75
2023/09/03 03:02:47;;;;;;;9.82;6.97;;;;;;;;;;6296944;28;20049;-75
2023/09/03 03:05:53;;;;;;;9.43;6.78;;;;;;;;;;6301998;28;20044;-76
2023/09/03 03:09:01;;;;;;;8.75;6.32;;;;;;;;;;6301889;28;20109;-75
2023/09/03 03:12:02;;;;;;;9.20;6.35;;;;;;;;;;6299573;28;20081;-76
2023/09/03 03:15:05;;;;;;;10.02;6.47;;;;;;;;;;6297518;28;20366;-76
2023/09/03 03:18:08;;;;;;;9.63;6.83;;;;;;;;;;6283008;28;20085;-76
2023/09/03 03:21:11;;;;;;;10.18;6.22;;;;;;;;;;6299185;28;20520;-75
2023/09/03 03:24:13;;;;;;;10.32;6.97;;;;;;;;;;6297698;28;20059;-75
2023/09/03 03:27:18;;;;;;;8.48;6.40;;;;;;;;;;6293533;28;20252;-76
2023/09/03 03:30:20;;;;;;;8.52;6.38;;;;;;;;;;6296625;28;20268;-76
2023/09/03 03:33:23;;;;;;;8.90;6.82;;;;;;;;;;6297960;28;20240;-77
2023/09/03 03:36:25;;;;;;;9.95;6.50;;;;;;;;;;6298695;28;20363;-76
2023/09/03 03:39:26;;;;;;;10.52;6.95;;;;;;;;;;6297772;28;20237;-75
2023/09/03 03:42:28;;;;;;;11.38;6.60;;;;;;;;;;6295226;28;20108;-75
2023/09/03 03:45:33;;;;;;;7.60;5.53;;;;;;;;;;6299069;28;20045;-75
2023/09/03 03:48:37;;;;;;;7.15;6.38;;;;;;;;;;6297125;28;20059;-76
2023/09/03 03:51:38;;;;;;;7.93;6.47;;;;;;;;;;6298157;28;20044;-75
2023/09/03 03:54:40;;;;;;;9.38;6.93;;;;;;;;;;6296233;28;20360;-76
2023/09/03 03:57:42;;;;;;;8.07;6.70;;;;;;;;;;6299022;28;20061;-75
2023/09/03 04:00:44;;;;;;;11.82;6.38;;;;;;;;;;6299293;28;20087;-75
2023/09/03 04:03:49;;;;;;;10.38;6.43;;;;;;;;;;6296884;28;20056;-77
2023/09/03 04:06:50;;;;;;;12.30;6.95;;;;;;;;;;6298108;28;20151;-76
2023/09/03 04:09:52;;;;;;;10.88;6.75;;;;;;;;;;6298368;28;20269;-76
2023/09/03 04:12:56;;;;;;;8.95;6.75;;;;;;;;;;6295928;28;20320;-75
2023/09/03 04:15:58;;;;;;;9.70;6.78;;;;;;;;;;6299982;28;20045;-76
2023/09/03 04:19:02;;;;;;;8.13;6.57;;;;;;;;;;6300497;28;20055;-76
2023/09/03 04:22:04;;;;;;;10.20;6.75;;;;;;;;;;6299328;28;20065;-77
2023/09/03 04:25:07;;;;;;;9.73;6.75;;;;;;;;;;6306868;28;20040;-75
2023/09/03 04:28:09;;;;;;;10.63;7.18;;;;;;;;;;6301428;28;20107;-76
2023/09/03 04:31:11;;;;;;;9.10;6.50;;;;;;;;;;6301780;28;20064;-77
2023/09/03 04:34:14;;;;;;;10.20;6.22;;;;;;;;;;6300245;28;20057;-78
2023/09/03 04:37:16;;;;;;;9.68;6.82;;;;;;;;;;6305195;28;20056;-75
2023/09/03 04:40:17;;;;;;;7.50;6.25;;;;;;;;;;6302902;28;20071;-75
2023/09/03 04:43:19;;;;;;;11.43;7.13;;;;;;;;;;6302108;28;20115;-76
2023/09/03 04:46:21;;;;;;;8.85;6.68;;;;;;;;;;6299105;28;20076;-78
2023/09/03 04:49:24;;;;;;;9.32;6.65;;;;;;;;;;6304493;28;20067;-75
2023/09/03 04:52:26;;;;;;;9.55;6.43;;;;;;;;;;6301458;28;20052;-76
2023/09/03 04:55:32;;;;;;;9.68;6.50;;;;;;;;;;6300109;28;20060;-76
2023/09/03 04:58:34;;;;;;;7.78;6.82;;;;;;;;;;6303879;28;20249;-77
2023/09/03 05:01:35;;;;;;;9.95;6.70;;;;;;;;;;6298884;28;20328;-76
2023/09/03 05:04:38;;;;;;;12.18;6.63;;;;;;;;;;6299225;28;20056;-75
2023/09/03 05:07:40;;;;;;;10.05;6.97;;;;;;;;;;6299544;28;20053;-76
2023/09/03 05:10:42;;;;;;;9.85;7.32;;;;;;;;;;6302058;28;20114;-77
2023/09/03 05:13:44;;;;;;;12.95;7.15;;;;;;;;;;6299827;28;20290;-75
2023/09/03 05:16:46;;;;;;;9.85;6.80;;;;;;;;;;6305436;28;20082;-76
2023/09/03 05:19:49;;;;;;;8.57;6.45;;;;;;;;;;6302734;28;20105;-75
2023/09/03 05:22:51;;;;;;;11.02;6.93;;;;;;;;;;6302933;28;20053;-75
2023/09/03 05:25:53;;;;;;;12.05;7.15;;;;;;;;;;6301380;28;20268;-76
2023/09/03 05:28:55;;;;;;;8.73;6.30;;;;;;;;;;6300959;28;20052;-75
2023/09/03 05:31:57;;;;;;;8.07;6.72;;;;;;;;;;6299033;28;20052;-75
2023/09/03 05:35:00;;;;;;;11.60;7.05;;;;;;;;;;6298770;28;20052;-75
2023/09/03 05:38:01;;;;;;;11.55;7.63;;;;;;;;;;6302153;28;20048;-78
2023/09/03 05:41:03;;;;;;;10.93;7.80;;;;;;;;;;6299806;28;20060;-75
2023/09/03 05:44:09;;;;;;;11.10;7.72;;;;;;;;;;6301187;28;20341;-75
2023/09/03 05:47:13;;;;;;;12.80;7.82;;;;;;;;;;6299730;28;20056;-75
2023/09/03 05:50:16;;;;;;;9.55;7.68;;;;;;;;;;6301558;28;20049;-75
2023/09/03 05:53:18;;;;;;;11.13;8.63;;;;;;;;;;6300444;28;20084;-75
2023/09/03 05:56:20;;;;;;;13.05;8.57;;;;;;;;;;6297658;28;20060;-76
2023/09/03 05:59:22;;;;;;;14.32;9.10;;;;;;;;;;6298655;28;20419;-76
2023/09/03 06:02:24;;;;;;;10.82;9.25;;;;;;;;;;6300595;28;20041;-76
2023/09/03 06:05:28;;;;;;;11.25;8.68;;;;;;;;;;6299341;28;20050;-75
2023/09/03 06:08:31;;;;;;;12.82;8.20;;;;;;;;;;6301359;28;20067;-76
2023/09/03 06:11:33;;;;;;;12.90;8.10;;;;;;;;;;6300589;28;20052;-75
2023/09/03 06:14:35;;;;;;;10.90;8.07;;;;;;;;;;6297968;28;20044;-76
2023/09/03 06:17:36;;;;;;;14.27;8.30;;;;;;;;;;6299885;28;20111;-78
2023/09/03 06:20:40;;;;;;;12.02;7.90;;;;;;;;;;6300883;28;20056;-76
2023/09/03 06:23:41;;;;;;;9.27;7.05;;;;;;;;;;6300494;28;20212;-76
2023/09/03 06:26:43;;;;;;;11.68;7.43;;;;;;;;;;6303211;28;20052;-76
2023/09/03 06:29:45;;;;;;;9.70;7.63;;;;;;;;;;6298752;28;20070;-75
2023/09/03 06:32:46;;;;;;;11.10;8.18;;;;;;;;;;6296856;28;20059;-78
2023/09/03 06:35:49;;;;;;;12.55;8.52;;;;;;;;;;6299222;28;20317;-75
2023/09/03 06:38:51;;;;;;;10.32;8.27;;;;;;;;;;6299673;28;20052;-77
2023/09/03 06:41:54;;;;;;;11.60;9.13;;;;;;;;;;6298740;28;20089;-76
2023/09/03 06:44:55;;;;;;;13.57;8.50;;;;;;;;;;6292830;28;20049;-76
2023/09/03 06:47:57;;;;;;;11.98;9.52;;;;;;;;;;6300023;28;20116;-76
2023/09/03 06:51:01;;;;;;;16.10;10.73;;;;;;;;;;6300015;28;20044;-76
2023/09/03 06:54:03;;;;;;;14.30;11.07;;;;;;;;;;6299035;28;20061;-76
2023/09/03 06:57:05;;;;;;;17.70;11.70;;;;;;;;;;6300350;28;20074;-75
2023/09/03 07:00:09;;;;;;;12.15;9.73;;;;;;;;;;6299716;28;20048;-75
2023/09/03 07:03:11;;;;;;;15.10;10.48;;;;;;;;;;6297302;28;20763;-75
2023/09/03 07:06:14;;;;;;;12.77;9.82;;;;;;;;;;6300796;28;20055;-75
2023/09/03 07:09:16;;;;;;;15.80;10.32;;;;;;;;;;6297366;28;20132;-75
2023/09/03 07:12:18;;;;;;;17.73;11.68;;;;;;;;;;6298325;28;20060;-76
2023/09/03 07:15:19;;;;;;;14.40;10.60;;;;;;;;;;6299551;28;20061;-75
2023/09/03 07:18:21;;;;;;;14.27;10.90;;;;;;;;;;6294251;28;20057;-76
2023/09/03 07:21:24;;;;;;;17.38;10.27;;;;;;;;;;6299328;28;20049;-76
2023/09/03 07:24:26;;;;;;;14.30;9.60;;;;;;;;;;6296840;28;20916;-76
2023/09/03 07:27:28;;;;;;;14.70;9.10;;;;;;;;;;6301025;28;20051;-75
2023/09/03 07:30:30;;;;;;;15.85;10.40;;;;;;;;;;6299180;28;20052;-77
2023/09/03 07:33:32;;;;;;;12.40;10.83;;;;;;;;;;6301917;28;20118;-76
2023/09/03 07:36:35;;;;;;;15.13;10.37;;;;;;;;;;6298318;28;20110;-77
2023/09/03 07:39:37;;;;;;;16.23;10.88;;;;;;;;;;6302871;28;20473;-76
2023/09/03 07:42:39;;;;;;;11.68;10.15;;;;;;;;;;6301205;28;20205;-75
2023/09/03 07:45:41;;;;;;;13.02;11.13;;;;;;;;;;6300931;28;20048;-78
2023/09/03 07:48:42;;;;;;;16.88;10.00;;;;;;;;;;6296368;28;20056;-76
2023/09/03 07:51:46;;;;;;;18.05;9.70;;;;;;;;;;6300545;28;21279;-77
2023/09/03 07:54:47;;;;;;;;;;;;;;;;;;6300429;28;20051;-76
2023/09/03 07:57:49;;;;;;;18.38;11.68;;;;;;;;;;6305081;28;19930;-75
2023/09/03 08:00:52;;;;;;;11.65;9.85;;;;;;;;;;6294279;28;20056;-76
2023/09/03 08:03:56;;;;;;;;;;;;;;;;;;6299253;28;20051;-75
2023/09/03 08:06:59;;;;;;;14.98;11.25;;;;;;;;;;6286533;28;19925;-77
2023/09/03 08:10:01;;;;;;;16.45;11.60;;;;;;;;;;6300371;28;20060;-76
2023/09/03 08:13:03;;;;;;;13.10;9.63;;;;;;;;;;6296001;28;20072;-76
2023/09/03 08:16:05;;;;;;;11.23;9.60;;;;;;;;;;6297103;28;20059;-76
2023/09/03 08:19:06;;;;;;;13.70;11.15;;;;;;;;;;6296721;28;20051;-76
2023/09/03 08:22:09;;;;;;;14.35;11.50;;;;;;;;;;6296450;28;20363;-77
2023/09/03 08:25:11;;;;;;;15.45;12.45;;;;;;;;;;6298493;28;20052;-76
2023/09/03 08:28:13;;;;;;;15.13;12.55;;;;;;;;;;6298077;28;20049;-75
2023/09/03 08:31:15;;;;;;;18.88;13.80;;;;;;;;;;6297073;28;20098;-78
2023/09/03 08:34:17;;;;;;;17.27;12.70;;;;;;;;;;6296831;28;20056;-76
2023/09/03 08:37:20;;;;;;;16.13;12.70;;;;;;;;;;6295740;28;20055;-76
2023/09/03 08:40:23;;;;;;;15.45;12.38;;;;;;;;;;6298594;28;20247;-76
2023/09/03 08:43:25;;;;;;;;;;;;;;;;;;6299126;28;20341;-76
2023/09/03 08:46:29;;;;;;;12.25;10.35;;;;;;;;;;6296094;28;20273;-75
2023/09/03 08:49:31;;;;;;;13.65;10.60;;;;;;;;;;6299206;28;20071;-76
2023/09/03 08:52:35;;;;;;;12.90;9.48;;;;;;;;;;6297715;28;20071;-76
2023/09/03 08:55:39;;;;;;;10.05;8.27;;;;;;;;;;6302490;28;20055;-77
2023/09/03 08:58:41;;;;;;;11.85;7.38;;;;;;;;;;6297382;28;20039;-76
2023/09/03 09:01:43;;;;;;;10.23;6.07;;;;;;;;;;6297106;28;20321;-76
2023/09/03 09:04:45;;;;;;;9.85;6.40;;;;;;;;;;6297643;28;20056;-75
2023/09/03 09:07:49;;;;;;;10.30;6.77;;;;;;;;;;6295061;28;20048;-76
2023/09/03 09:10:52;;;;;;;10.15;6.45;;;;;;;;;;6300403;28;20362;-77
2023/09/03 09:13:58;;;;;;;5.70;4.50;;;;;;;;;;6300072;28;20055;-79
2023/09/03 09:17:00;;;;;;;5.95;3.65;;;;;;;;;;6290029;28;20797;-78
2023/09/03 09:20:04;;;;;;;6.90;4.00;;;;;;;;;;6304964;28;20263;-76
2023/09/03 09:23:08;;;;;;;5.57;3.80;;;;;;;;;;6299725;28;20055;-77
2023/09/03 09:26:17;;;;;;;7.00;4.25;;;;;;;;;;6297993;28;20063;-75
2023/09/03 09:29:21;;;;;;;5.95;3.97;;;;;;;;;;6299962;28;20053;-76
2023/09/03 09:32:24;;;;;;;5.20;3.72;;;;;;;;;;6297821;28;20058;-76
2023/09/03 09:35:26;;;;;;;5.85;4.55;;;;;;;;;;6303381;28;20045;-75
2023/09/03 09:38:35;;;;;;;4.55;4.07;;;;;;;;;;6300900;28;20060;-79
2023/09/03 09:41:38;;;;;;;7.35;3.78;;;;;;;;;;6279470;28;20268;-78
2023/09/03 09:44:48;;;;;;;5.45;3.53;;;;;;;;;;6297870;28;20052;-77
2023/09/03 09:48:03;;;;;;;4.60;3.40;;;;;;;;;;6302594;28;20052;-76
2023/09/03 09:51:10;;;;;;;6.55;3.88;;;;;;;;;;6300759;28;20075;-76
2023/09/03 09:54:13;;;;;;;5.38;3.33;;;;;;;;;;6301525;28;20056;-76
2023/09/03 09:57:16;;;;;;;4.57;3.47;;;;;;;;;;6301601;28;20056;-77
2023/09/03 10:00:32;;;;;;;4.28;3.35;;;;;;;;;;6286172;28;20060;-76
2023/09/03 10:03:45;;;;;;;5.00;3.58;;;;;;;;;;6298399;28;20263;-76
2023/09/03 10:06:47;;;;;;;4.45;3.28;;;;;;;;;;6301283;28;20060;-77
2023/09/03 10:09:50;;;;;;;4.68;2.85;;;;;;;;;;6300598;28;20052;-77
2023/09/03 10:12:51;;;;;;;4.35;2.75;;;;;;;;;;6297430;28;20447;-76
2023/09/03 10:15:53;;;;;;;5.68;3.40;;;;;;;;;;6300311;28;20055;-76
2023/09/03 10:18:55;;;;;;;5.13;3.05;;;;;;;;;;6300631;28;20061;-76
2023/09/03 10:22:02;;;;;;;5.78;2.95;;;;;;;;;;6301154;28;20097;-76
2023/09/03 10:25:09;;;;;;;6.00;3.30;;;;;;;;;;6303082;28;20125;-76
2023/09/03 10:28:11;;;;;;;6.57;3.00;;;;;;;;;;6296794;28;20099;-77
2023/09/03 10:31:15;;;;;;;;;;;;;;;;;;6298988;28;20044;-76
2023/09/03 10:34:17;;;;;;;4.63;3.30;;;;;;;;;;6300189;28;19983;-76
2023/09/03 10:37:20;;;;;;;5.05;2.85;;;;;;;;;;6298340;28;20049;-76
2023/09/03 10:40:27;;;;;;;4.45;3.28;;;;;;;;;;6300069;28;20156;-76
2023/09/03 10:43:29;;;;;;;6.28;3.60;;;;;;;;;;6296853;28;20340;-77
2023/09/03 10:46:31;;;;;;;6.25;3.50;;;;;;;;;;6297028;28;20057;-77
2023/09/03 10:49:45;;;;;;;6.60;3.70;;;;;;;;;;6299180;28;20101;-77
2023/09/03 10:52:47;;;;;;;7.32;3.80;;;;;;;;;;6298422;28;20102;-78
2023/09/03 10:56:09;;;;;;;5.32;3.67;;;;;;;;;;6297250;28;20045;-79
2023/09/03 10:59:11;;;;;;;6.32;3.58;;;;;;;;;;6297902;28;20064;-77
2023/09/03 11:06:18;;;;;;;5.15;3.10;;;;;;;;;;6300781;28;20059;-77
2023/09/03 11:09:23;;;;;;;4.22;3.25;;;;;;;;;;6299423;28;20082;-76
2023/09/03 11:12:26;;;;;;;4.40;3.17;;;;;;;;;;6298583;28;20061;-76
2023/09/03 11:15:28;;;;;;;4.47;2.90;;;;;;;;;;6294676;28;20045;-76
2023/09/03 11:18:30;;;;;;;7.93;3.72;;;;;;;;;;6296329;28;20040;-77
2023/09/03 11:21:32;;;;;;;4.40;3.60;;;;;;;;;;6298733;28;20082;-76
2023/09/03 11:24:45;;;;;;;7.05;4.35;;;;;;;;;;6297656;28;20459;-77
2023/09/03 11:27:52;;;;;;;5.00;3.65;;;;;;;;;;6296862;28;20409;-76
2023/09/03 11:31:00;;;;;;;5.72;3.38;;;;;;;;;;6294171;28;20052;-77
2023/09/03 11:34:17;;;;;;;4.45;3.47;;;;;;;;;;6299008;28;20053;-77
2023/09/03 11:37:19;;;;;;;5.13;3.28;;;;;;;;;;6295978;28;20084;-77
2023/09/03 11:40:25;;;;;;;6.65;4.20;;;;;;;;;;6297598;28;20057;-79
2023/09/03 11:43:29;;;;;;;4.32;3.03;;;;;;;;;;6300199;28;20053;-76
2023/09/03 11:46:31;;;;;;;3.95;3.40;;;;;;;;;;6294979;28;20279;-77
2023/09/03 11:49:34;;;;;;;4.47;3.45;;;;;;;;;;6302338;28;20067;-77
2023/09/03 11:52:36;;;;;;;4.85;3.15;;;;;;;;;;6299187;28;20340;-78
2023/09/03 11:55:40;;;;;;;6.60;3.15;;;;;;;;;;6298248;28;20040;-77
2023/09/03 11:58:43;;;;;;;4.10;3.00;;;;;;;;;;6297696;28;20060;-77
2023/09/03 12:01:45;;;;;;;5.60;2.92;;;;;;;;;;6295859;28;20045;-79
2023/09/03 12:04:47;;;;;;;5.30;3.50;;;;;;;;;;6294290;28;20257;-77
2023/09/03 12:07:49;;;;;;;4.90;2.95;;;;;;;;;;6298597;28;20116;-78
2023/09/03 12:10:52;;;;;;;9.27;3.72;;;;;;;;;;6297158;28;20107;-77
2023/09/03 12:13:56;;;;;;;5.40;3.05;;;;;;;;;;6298566;28;20268;-79
2023/09/03 12:16:58;;;;;;;3.30;2.80;;;;;;;;;;6297825;28;20044;-78
2023/09/03 12:19:59;;;;;;;;;;;;;;;;;;6296196;28;20225;-78
2023/09/03 12:23:13;;;;;;;7.17;3.10;;;;;;;;;;6297148;28;19946;-78
2023/09/03 12:26:16;;;;;;;4.85;3.13;;;;;;;;;;6295876;28;20245;-78
2023/09/03 12:29:28;;;;;;;5.63;3.63;;;;;;;;;;6290288;28;20341;-79
2023/09/03 12:32:34;;;;;;;6.10;2.80;;;;;;;;;;6291944;28;23044;-79
2023/09/03 12:35:36;;;;;;;3.33;2.33;;;;;;;;;;6289584;28;20052;-78
2023/09/03 12:38:53;;;;;;;3.45;2.63;;;;;;;;;;6297991;28;20265;-77
2023/09/03 12:41:54;;;;;;;3.40;2.58;;;;;;;;;;6296428;28;20057;-77
2023/09/03 12:44:57;;;;;;;4.55;2.60;;;;;;;;;;6305240;28;20060;-78
2023/09/03 12:47:59;;;;;;;3.70;2.40;;;;;;;;;;6304789;28;20051;-79
2023/09/03 12:51:01;;;;;;;3.65;2.45;;;;;;;;;;6296688;28;20036;-78
2023/09/03 12:54:04;;;;;;;3.85;2.78;;;;;;;;;;6304095;28;20064;-81
2023/09/03 12:57:05;;;;;;;8.52;3.38;;;;;;;;;;6299872;28;20064;-79
2023/09/03 13:00:10;;;;;;;3.53;2.40;;;;;;;;;;6306133;28;20044;-77
2023/09/03 13:03:13;;;;;;;6.78;2.58;;;;;;;;;;6302761;28;20051;-78
2023/09/03 13:06:14;;;;;;;4.15;2.58;;;;;;;;;;6304838;28;20064;-78
2023/09/03 13:09:16;;;;;;;3.72;2.30;;;;;;;;;;6307124;28;20060;-79
2023/09/03 13:12:18;;;;;;;5.00;2.88;;;;;;;;;;6298214;28;20120;-79
2023/09/03 13:15:21;;;;;;;5.57;2.70;;;;;;;;;;6297919;28;20371;-77
2023/09/03 13:18:23;;;;;;;3.65;2.50;;;;;;;;;;6297025;28;20045;-77
2023/09/03 13:21:25;;;;;;;;;;;;;;;;;;6301296;28;20057;-77
2023/09/03 13:24:26;;;;;;;3.57;2.70;;;;;;;;;;6295276;28;19924;-79
2023/09/03 13:27:28;;;;;;;7.70;2.88;;;;;;;;;;6300333;28;20048;-78
2023/09/03 13:30:31;;;;;;;3.88;2.80;;;;;;;;;;6303270;28;20043;-78
2023/09/03 13:33:33;;;;;;;3.03;2.58;;;;;;;;;;6297175;28;20063;-79
2023/09/03 13:36:36;;;;;;;6.00;2.60;;;;;;;;;;6302209;28;20044;-79
2023/09/03 13:39:38;;;;;;;3.08;2.40;;;;;;;;;;6299070;28;20060;-78
2023/09/03 13:42:41;;;;;;;3.78;2.40;;;;;;;;;;6302422;28;20425;-79
2023/09/03 13:45:53;;;;;;;3.25;2.60;;;;;;;;;;6302197;28;20052;-79
2023/09/03 13:48:55;;;;;;;4.07;2.30;;;;;;;;;;6299328;28;20056;-78
2023/09/03 13:51:57;;;;;;;3.55;2.47;;;;;;;;;;6302890;28;20065;-77
2023/09/03 13:54:58;;;;;;;;;;;;;;;;;;6301048;28;20075;-78
2023/09/03 13:58:02;;;;;;;3.63;2.30;;;;;;;;;;6305965;28;19979;-79
2023/09/03 14:01:08;;;;;;;4.43;2.38;;;;;;;;;;6299896;28;20051;-78
2023/09/03 14:04:10;;;;;;;2.65;2.10;;;;;;;;;;6301193;28;20056;-78
2023/09/03 14:07:12;;;;;;;3.72;2.60;;;;;;;;;;6305115;28;20036;-78
2023/09/03 14:10:14;;;;;;;3.63;2.05;;;;;;;;;;6303412;28;20061;-78
2023/09/03 14:13:15;;;;;;;4.82;2.20;;;;;;;;;;6301468;28;20059;-78
2023/09/03 14:16:19;;;;;;;5.50;2.10;;;;;;;;;;6301759;28;20072;-78
2023/09/03 14:19:20;;;;;;;3.53;2.10;;;;;;;;;;6298963;28;20392;-79
2023/09/03 14:22:22;;;;;;;3.22;2.13;;;;;;;;;;6297080;28;20048;-79
2023/09/03 14:25:27;;;;;;;4.25;2.15;;;;;;;;;;6302637;28;20057;-78
2023/09/03 14:28:29;;;;;;;3.28;2.30;;;;;;;;;;6299399;28;20057;-78
2023/09/03 14:31:32;;;;;;;3.17;2.35;;;;;;;;;;6299415;28;20037;-78
2023/09/03 14:34:34;;;;;;;2.10;1.80;;;;;;;;;;6297675;28;20135;-78
2023/09/03 14:37:36;;;;;;;2.75;1.90;;;;;;;;;;6301873;28;20098;-78
2023/09/03 14:40:39;;;;;;;2.33;1.80;;;;;;;;;;6299780;28;20345;-78
2023/09/03 14:43:40;;;;;;;3.05;1.95;;;;;;;;;;6296125;28;20043;-79
2023/09/03 14:46:44;;;;;;;2.70;2.10;;;;;;;;;;6290675;28;20060;-79
2023/09/03 14:49:46;;;;;;;4.00;2.38;;;;;;;;;;6297967;28;20392;-78
2023/09/03 14:52:48;;;;;;;2.42;2.17;;;;;;;;;;6296742;28;20325;-80
2023/09/03 14:55:50;;;;;;;2.22;1.75;;;;;;;;;;6297919;28;20352;-79
2023/09/03 14:58:52;;;;;;;;;;;;;;;;;;6297400;28;20063;-78
2023/09/03 15:01:55;;;;;;;4.03;2.03;;;;;;;;;;6301558;28;19916;-79
2023/09/03 15:04:58;;;;;;;4.88;2.13;;;;;;;;;;6298655;28;20469;-79
2023/09/03 15:08:00;;;;;;;4.93;2.10;;;;;;;;;;6301263;28;20362;-77
2023/09/03 15:11:09;;;;;;;4.22;1.90;;;;;;;;;;6299074;28;20057;-79
2023/09/03 15:14:10;;;;;;;1.90;1.70;;;;;;;;;;6301002;28;20208;-79
2023/09/03 15:17:14;;;;;;;6.15;2.08;;;;;;;;;;6295891;28;20063;-80
2023/09/03 15:20:16;;;;;;;2.33;1.85;;;;;;;;;;6297516;28;20044;-80
2023/09/03 15:23:17;;;;;;;3.42;2.00;;;;;;;;;;6300488;28;20056;-78
2023/09/03 15:26:19;;;;;;;14.07;3.45;;;;;;;;;;6299114;28;20068;-79
2023/09/03 15:29:24;;;;;;;2.55;2.05;;;;;;;;;;6302075;28;20055;-79
2023/09/03 15:32:28;;;;;;;2.20;2.00;;;;;;;;;;6294511;28;20325;-79
2023/09/03 15:35:30;;;;;;;3.20;1.85;;;;;;;;;;6299348;28;20060;-79
2023/09/03 15:38:31;;;;;;;2.80;1.70;;;;;;;;;;6301827;28;20056;-80
2023/09/03 15:41:33;;;;;;;3.05;2.00;;;;;;;;;;6298357;28;20056;-79
2023/09/03 15:44:35;;;;;;;4.35;2.20;;;;;;;;;;6299638;28;20078;-79
2023/09/03 15:47:38;;;;;;;2.35;1.70;;;;;;;;;;6298665;28;20044;-80
2023/09/03 15:50:43;;;;;;;2.30;2.00;;;;;;;;;;6299202;28;20052;-79
2023/09/03 15:53:45;;;;;;;5.78;1.83;;;;;;;;;;6276090;28;20361;-79
2023/09/03 15:56:47;;;;;;;3.08;1.70;;;;;;;;;;6298838;28;20103;-79
2023/09/03 15:59:48;;;;;;;4.20;2.10;;;;;;;;;;6295095;28;20043;-79
2023/09/03 16:02:51;;;;;;;2.55;2.10;;;;;;;;;;6296837;28;20045;-79
2023/09/03 16:05:56;;;;;;;2.45;1.73;;;;;;;;;;6297634;28;20325;-80
2023/09/03 16:08:57;;;;;;;3.47;1.90;;;;;;;;;;6299181;28;20119;-79
2023/09/03 16:12:04;;;;;;;4.45;1.92;;;;;;;;;;6298838;28;20091;-79
2023/09/03 16:15:07;;;;;;;2.65;1.80;;;;;;;;;;6295057;28;20077;-81
2023/09/03 16:18:12;;;;;;;3.65;1.92;;;;;;;;;;6300777;28;20151;-79
2023/09/03 16:21:14;;;;;;;4.40;2.80;;;;;;;;;;6300989;28;20049;-79
2023/09/03 16:24:16;;;;;;;3.90;2.22;;;;;;;;;;6304620;28;20188;-78
2023/09/03 16:27:18;;;;;;;4.63;2.05;;;;;;;;;;6302331;28;20064;-79
2023/09/03 16:30:20;;;;;;;2.90;1.95;;;;;;;;;;6302190;28;20063;-79
2023/09/03 16:33:23;;;;;;;5.20;2.05;;;;;;;;;;6303334;28;20128;-79
2023/09/03 16:36:24;;;;;;;4.50;2.40;;;;;;;;;;6301464;28;20060;-79
2023/09/03 16:39:29;;;;;;;4.95;2.88;;;;;;;;;;6298908;28;20049;-80
2023/09/03 16:42:31;;;;;;;3.72;2.40;;;;;;;;;;6302020;28;20168;-79
2023/09/03 16:45:32;;;;;;;3.40;2.40;;;;;;;;;;6301303;28;20063;-78
2023/09/03 16:48:35;;;;;;;4.88;2.30;;;;;;;;;;6302228;28;20359;-79
2023/09/03 16:51:40;;;;;;;6.03;2.33;;;;;;;;;;6302679;28;20052;-79
2023/09/03 16:54:42;;;;;;;4.72;2.40;;;;;;;;;;6300790;28;20341;-79
2023/09/03 16:57:44;;;;;;;4.78;2.97;;;;;;;;;;6302118;28;20357;-79
2023/09/03 17:00:46;;;;;;;4.53;2.60;;;;;;;;;;6299428;28;20237;-79
2023/09/03 17:03:49;;;;;;;5.40;2.60;;;;;;;;;;6301722;28;20048;-79
2023/09/03 17:06:51;;;;;;;7.30;3.13;;;;;;;;;;6304741;28;20860;-79
2023/09/03 17:09:54;;;;;;;5.70;2.38;;;;;;;;;;6303391;28;20101;-79
2023/09/03 17:12:55;;;;;;;5.93;2.60;;;;;;;;;;6301987;28;20049;-79
2023/09/03 17:15:57;;;;;;;5.73;3.43;;;;;;;;;;6300991;28;20044;-80
2023/09/03 17:19:00;;;;;;;7.53;3.00;;;;;;;;;;6301732;28;20051;-79
2023/09/03 17:22:02;;;;;;;3.75;2.50;;;;;;;;;;6301957;28;20287;-79
2023/09/03 17:25:05;;;;;;;6.15;3.70;;;;;;;;;;6301829;28;20059;-79
2023/09/03 17:28:07;;;;;;;5.63;3.28;;;;;;;;;;6304297;28;20070;-79
2023/09/03 17:31:09;;;;;;;5.57;2.65;;;;;;;;;;6301405;28;20056;-78
2023/09/03 17:34:12;;;;;;;3.30;2.90;;;;;;;;;;6299219;28;20272;-78
2023/09/03 17:37:14;;;;;;;5.93;2.90;;;;;;;;;;6302362;28;20329;-79
2023/09/03 17:40:17;;;;;;;3.13;2.40;;;;;;;;;;6303131;28;20267;-79
2023/09/03 17:43:19;;;;;;;3.95;2.78;;;;;;;;;;6302304;28;20497;-80
2023/09/03 17:46:21;;;;;;;4.20;2.67;;;;;;;;;;6300575;28;20076;-80
2023/09/03 17:49:24;;;;;;;5.33;3.13;;;;;;;;;;6302181;28;20101;-80
2023/09/03 17:52:25;;;;;;;5.32;2.78;;;;;;;;;;6304688;28;20055;-78
2023/09/03 17:55:27;;;;;;;7.70;3.50;;;;;;;;;;6301272;28;20053;-79
2023/09/03 17:58:29;;;;;;;6.70;2.97;;;;;;;;;;6300455;28;20249;-79
2023/09/03 18:01:31;;;;;;;5.47;3.53;;;;;;;;;;6301978;28;20066;-78
2023/09/03 18:04:35;;;;;;;5.47;3.23;;;;;;;;;;6303785;28;20079;-79
2023/09/03 18:07:36;;;;;;;3.95;2.88;;;;;;;;;;6304598;28;20477;-78
2023/09/03 18:10:38;;;;;;;5.20;3.03;;;;;;;;;;6298553;28;20274;-78
2023/09/03 18:13:41;;;;;;;4.78;3.22;;;;;;;;;;6298400;28;20056;-79
2023/09/03 18:16:43;;;;;;;7.55;3.53;;;;;;;;;;6302944;28;20060;-78
2023/09/03 18:19:47;;;;;;;6.22;3.75;;;;;;;;;;6299893;28;20045;-78
2023/09/03 18:22:49;;;;;;;6.78;3.28;;;;;;;;;;6300312;28;20393;-79